Time,TemperatureF,DewpointF,PressureIn,WindDirection,WindDirectionDegrees,WindSpeedMPH,WindSpeedGustMPH,Humidity,HourlyPrecipIn,Conditions,Clouds,dailyrainin,SolarRadiationWatts/m^2,SoftwareType,DateUTC
2013-03-18 00:00:00,19.7,17.2,30.01,South,179,0.0,5.0,90,0.00,,,0.00,0,Wunderground v.1.15,2013-03-18 06:00:00,
2013-03-18 00:07:00,19.7,17.2,30.02,South,179,0.0,5.0,90,0.00,,,0.00,0,Wunderground v.1.15,2013-03-18 06:07:00,
2013-03-18 00:13:00,19.7,17.2,30.02,South,179,0.0,5.0,90,0.00,,,0.00,0,Wunderground v.1.15,2013-03-18 06:13:00,
2013-03-18 00:18:00,19.7,17.2,30.02,South,179,0.0,5.0,90,0.00,,,0.00,0,Wunderground v.1.15,2013-03-18 06:18:00,
2013-03-18 00:23:00,19.7,17.5,30.02,South,179,0.0,5.0,91,0.00,,,0.00,0,Wunderground v.1.15,2013-03-18 06:23:00,
2013-03-18 00:29:00,19.7,17.5,30.02,South,179,0.0,5.0,91,0.00,,,0.00,0,Wunderground v.1.15,2013-03-18 06:29:00,
2013-03-18 00:35:00,19.7,17.5,30.02,South,179,0.0,5.0,91,0.00,,,0.00,0,Wunderground v.1.15,2013-03-18 06:35:00,
2013-03-18 00:42:00,19.9,17.7,30.02,South,179,0.0,5.0,91,0.00,,,0.00,0,Wunderground v.1.15,2013-03-18 06:42:00,
2013-03-18 00:47:00,20.0,18.1,30.02,South,179,0.0,5.0,92,0.00,,,0.00,0,Wunderground v.1.15,2013-03-18 06:47:00,
2013-03-18 00:53:00,20.1,18.1,30.02,South,179,0.0,5.0,92,0.00,,,0.00,0,Wunderground v.1.15,2013-03-18 06:53:00,
2013-03-18 00:59:00,20.2,18.2,30.02,South,179,0.0,5.0,92,0.00,,,0.00,0,Wunderground v.1.15,2013-03-18 06:59:00,
2013-03-18 01:04:00,20.3,18.3,30.02,South,179,0.0,5.0,92,0.00,,,0.00,0,Wunderground v.1.15,2013-03-18 07:04:00,
2013-03-18 01:09:00,20.5,18.5,30.02,South,179,0.0,5.0,92,0.00,,,0.00,0,Wunderground v.1.15,2013-03-18 07:09:00,
2013-03-18 01:15:00,20.6,18.6,30.02,South,179,0.0,5.0,92,0.00,,,0.00,0,Wunderground v.1.15,2013-03-18 07:15:00,
2013-03-18 01:22:00,20.7,18.7,30.02,South,179,0.0,5.0,92,0.00,,,0.00,0,Wunderground v.1.15,2013-03-18 07:22:00,
2013-03-18 01:27:00,20.7,18.7,30.02,South,179,0.0,5.0,92,0.00,,,0.00,0,Wunderground v.1.15,2013-03-18 07:27:00,
2013-03-18 01:32:00,20.8,18.8,30.02,South,179,0.0,5.0,92,0.00,,,0.00,0,Wunderground v.1.15,2013-03-18 07:32:00,
2013-03-18 01:38:00,20.9,18.9,30.02,South,179,0.0,5.0,92,0.00,,,0.00,0,Wunderground v.1.15,2013-03-18 07:38:00,
2013-03-18 01:44:00,20.9,18.9,30.02,South,179,0.0,5.0,92,0.00,,,0.00,0,Wunderground v.1.15,2013-03-18 07:44:00,
2013-03-18 01:50:00,20.9,18.9,30.02,South,179,0.0,5.0,92,0.00,,,0.00,0,Wunderground v.1.15,2013-03-18 07:50:00,
2013-03-18 01:55:00,20.9,18.9,30.02,South,179,0.0,5.0,92,0.00,,,0.00,0,Wunderground v.1.15,2013-03-18 07:55:00,
2013-03-18 02:00:00,20.9,18.9,30.01,South,179,0.0,5.0,92,0.00,,,0.00,0,Wunderground v.1.15,2013-03-18 08:00:00,
2013-03-18 02:06:00,21.0,19.0,30.02,South,179,0.0,5.0,92,0.00,,,0.00,0,Wunderground v.1.15,2013-03-18 08:06:00,
2013-03-18 02:12:00,21.1,19.1,30.02,South,179,0.0,5.0,92,0.00,,,0.00,0,Wunderground v.1.15,2013-03-18 08:12:00,
2013-03-18 02:17:00,21.2,19.2,30.01,South,179,0.0,5.0,92,0.00,,,0.00,0,Wunderground v.1.15,2013-03-18 08:17:00,
2013-03-18 02:23:00,21.2,19.2,30.02,South,179,0.0,5.0,92,0.00,,,0.00,0,Wunderground v.1.15,2013-03-18 08:23:00,
2013-03-18 02:28:00,21.3,19.3,30.02,South,179,0.0,5.0,92,0.00,,,0.00,0,Wunderground v.1.15,2013-03-18 08:28:00,
2013-03-18 02:34:00,21.3,19.3,30.02,South,179,0.0,5.0,92,0.00,,,0.00,0,Wunderground v.1.15,2013-03-18 08:34:00,
2013-03-18 02:40:00,21.4,19.7,30.02,South,179,0.0,5.0,93,0.00,,,0.00,0,Wunderground v.1.15,2013-03-18 08:40:00,
2013-03-18 02:46:00,21.5,19.8,30.02,South,179,0.0,5.0,93,0.00,,,0.00,0,Wunderground v.1.15,2013-03-18 08:46:00,
2013-03-18 02:52:00,21.5,19.8,30.01,South,179,0.0,5.0,93,0.00,,,0.00,0,Wunderground v.1.15,2013-03-18 08:52:00,
2013-03-18 02:58:00,21.5,19.8,30.01,South,179,0.0,5.0,93,0.00,,,0.00,0,Wunderground v.1.15,2013-03-18 08:58:00,
2013-03-18 03:04:00,21.6,19.9,30.00,South,179,0.0,5.0,93,0.00,,,0.00,0,Wunderground v.1.15,2013-03-18 09:04:00,
2013-03-18 03:09:00,21.6,19.6,30.00,West,277,0.0,5.0,92,0.00,,,0.00,0,Wunderground v.1.15,2013-03-18 09:09:00,
2013-03-18 03:15:00,21.7,20.0,30.00,West,280,0.0,5.0,93,0.00,,,0.00,0,Wunderground v.1.15,2013-03-18 09:15:00,
2013-03-18 03:20:00,21.8,20.1,30.00,ENE,65,0.0,5.0,93,0.00,,,0.00,0,Wunderground v.1.15,2013-03-18 09:20:00,
2013-03-18 03:26:00,21.9,20.2,30.00,ENE,65,0.0,5.0,93,0.00,,,0.00,0,Wunderground v.1.15,2013-03-18 09:26:00,
2013-03-18 03:32:00,22.0,20.3,30.01,ENE,65,0.0,5.0,93,0.00,,,0.00,0,Wunderground v.1.15,2013-03-18 09:32:00,
2013-03-18 03:38:00,22.0,20.3,30.00,ENE,65,0.0,5.0,93,0.00,,,0.00,0,Wunderground v.1.15,2013-03-18 09:38:00,
2013-03-18 03:43:00,22.0,20.3,30.00,ENE,65,0.0,5.0,93,0.00,,,0.00,0,Wunderground v.1.15,2013-03-18 09:43:00,
2013-03-18 03:48:00,22.0,20.3,30.00,ENE,65,0.0,5.0,93,0.00,,,0.00,0,Wunderground v.1.15,2013-03-18 09:48:00,
2013-03-18 03:54:00,22.1,20.4,30.00,ENE,65,0.0,5.0,93,0.00,,,0.00,0,Wunderground v.1.15,2013-03-18 09:54:00,
2013-03-18 03:59:00,22.1,20.4,29.99,ENE,65,0.0,5.0,93,0.00,,,0.00,0,Wunderground v.1.15,2013-03-18 09:59:00,
2013-03-18 04:04:00,22.2,20.5,29.99,SSE,155,0.0,5.0,93,0.00,,,0.00,0,Wunderground v.1.15,2013-03-18 10:04:00,
2013-03-18 04:09:00,22.2,20.5,29.99,SSE,155,0.0,5.0,93,0.00,,,0.00,0,Wunderground v.1.15,2013-03-18 10:09:00,
2013-03-18 04:14:00,22.2,20.5,29.99,ENE,61,0.0,5.0,93,0.00,,,0.00,0,Wunderground v.1.15,2013-03-18 10:14:00,
2013-03-18 04:20:00,22.3,20.6,29.99,ESE,116,1.0,1.0,93,0.00,,,0.00,0,Wunderground v.1.15,2013-03-18 10:20:00,
2013-03-18 04:27:00,22.6,20.9,29.99,WSW,257,2.0,5.0,93,0.00,,,0.00,0,Wunderground v.1.15,2013-03-18 10:27:00,
2013-03-18 04:33:00,23.2,21.7,29.99,WNW,292,2.0,5.0,94,0.00,,,0.00,0,Wunderground v.1.15,2013-03-18 10:33:00,
2013-03-18 04:39:00,23.9,22.4,29.99,West,267,3.0,7.0,94,0.00,,,0.00,0,Wunderground v.1.15,2013-03-18 10:39:00,
2013-03-18 04:45:00,24.6,23.4,29.99,WSW,241,3.0,5.0,95,0.00,,,0.00,0,Wunderground v.1.15,2013-03-18 10:45:00,
2013-03-18 04:51:00,24.8,23.3,29.98,WSW,248,1.0,5.0,94,0.00,,,0.00,0,Wunderground v.1.15,2013-03-18 10:51:00,
2013-03-18 04:57:00,25.1,23.6,29.98,NW,318,2.0,6.0,94,0.00,,,0.00,0,Wunderground v.1.15,2013-03-18 10:57:00,
2013-03-18 05:03:00,25.3,23.8,29.99,SW,223,3.0,6.0,94,0.00,,,0.00,0,Wunderground v.1.15,2013-03-18 11:03:00,
2013-03-18 05:09:00,25.4,23.9,29.98,WNW,299,3.0,6.0,94,0.00,,,0.00,0,Wunderground v.1.15,2013-03-18 11:09:00,
2013-03-18 05:15:00,25.6,24.1,29.98,NNE,26,1.0,5.0,94,0.00,,,0.00,0,Wunderground v.1.15,2013-03-18 11:15:00,
2013-03-18 05:21:00,25.7,24.2,29.98,NW,315,2.0,6.0,94,0.00,,,0.00,0,Wunderground v.1.15,2013-03-18 11:21:00,
2013-03-18 05:27:00,25.7,24.2,29.98,SW,222,2.0,7.0,94,0.00,,,0.00,0,Wunderground v.1.15,2013-03-18 11:27:00,
2013-03-18 05:32:00,25.8,24.3,29.99,South,169,1.0,5.0,94,0.00,,,0.00,0,Wunderground v.1.15,2013-03-18 11:32:00,
2013-03-18 05:38:00,25.9,24.4,29.98,SSE,148,1.0,5.0,94,0.00,,,0.00,0,Wunderground v.1.15,2013-03-18 11:38:00,
2013-03-18 05:43:00,26.0,24.5,29.98,SSE,156,1.0,5.0,94,0.00,,,0.00,0,Wunderground v.1.15,2013-03-18 11:43:00,
2013-03-18 05:49:00,26.0,24.5,29.98,SSW,197,2.0,5.0,94,0.00,,,0.00,0,Wunderground v.1.15,2013-03-18 11:49:00,
2013-03-18 05:55:00,26.1,24.6,29.98,ESE,115,2.0,5.0,94,0.00,,,0.00,0,Wunderground v.1.15,2013-03-18 11:55:00,
2013-03-18 06:01:00,26.2,24.7,29.97,SE,128,1.0,5.0,94,0.00,,,0.00,0,Wunderground v.1.15,2013-03-18 12:01:00,
2013-03-18 06:06:00,26.3,24.8,29.98,ESE,109,1.0,5.0,94,0.00,,,0.00,0,Wunderground v.1.15,2013-03-18 12:06:00,
2013-03-18 06:11:00,26.3,24.6,29.98,SE,142,2.0,5.0,93,0.00,,,0.00,0,Wunderground v.1.15,2013-03-18 12:11:00,
2013-03-18 06:16:00,26.3,24.6,29.97,South,182,2.0,6.0,93,0.00,,,0.00,0,Wunderground v.1.15,2013-03-18 12:16:00,
2013-03-18 06:22:00,26.4,24.7,29.98,SW,224,2.0,5.0,93,0.00,,,0.00,0,Wunderground v.1.15,2013-03-18 12:22:00,
2013-03-18 06:28:00,26.4,24.7,29.98,ENE,68,2.0,5.0,93,0.00,,,0.00,0,Wunderground v.1.15,2013-03-18 12:28:00,
2013-03-18 06:33:00,26.4,24.4,29.98,SW,236,1.0,5.0,92,0.00,,,0.00,0,Wunderground v.1.15,2013-03-18 12:33:00,
2013-03-18 06:39:00,26.5,24.5,29.98,ESE,116,2.0,10.0,92,0.00,,,0.00,0,Wunderground v.1.15,2013-03-18 12:39:00,
2013-03-18 06:45:00,26.5,24.5,29.98,ENE,76,3.0,5.0,92,0.00,,,0.00,0,Wunderground v.1.15,2013-03-18 12:45:00,
2013-03-18 06:50:00,26.5,24.2,29.98,South,169,3.0,3.0,91,0.00,,,0.00,0,Wunderground v.1.15,2013-03-18 12:50:00,
2013-03-18 06:55:00,26.5,24.2,29.99,SSE,151,3.0,5.0,91,0.00,,,0.00,0,Wunderground v.1.15,2013-03-18 12:55:00,
2013-03-18 07:00:00,26.4,23.9,29.98,NNE,32,2.0,2.0,90,0.00,,,0.00,0,Wunderground v.1.15,2013-03-18 13:00:00,
2013-03-18 07:07:00,26.4,23.9,29.99,NNW,333,2.0,5.0,90,0.00,,,0.00,0,Wunderground v.1.15,2013-03-18 13:07:00,
2013-03-18 07:13:00,26.3,23.8,29.99,WNW,283,2.0,5.0,90,0.00,,,0.00,0,Wunderground v.1.15,2013-03-18 13:13:00,
2013-03-18 07:19:00,26.3,23.8,29.98,South,186,2.0,5.0,90,0.00,,,0.00,0,Wunderground v.1.15,2013-03-18 13:19:00,
2013-03-18 07:25:00,26.2,23.4,29.99,SSE,163,2.0,5.0,89,0.00,,,0.00,0,Wunderground v.1.15,2013-03-18 13:25:00,
2013-03-18 07:32:00,26.2,23.4,29.99,ESE,117,2.0,5.0,89,0.00,,,0.00,0,Wunderground v.1.15,2013-03-18 13:32:00,
2013-03-18 07:38:00,26.1,23.3,29.99,NNE,15,2.0,8.0,89,0.00,,,0.00,0,Wunderground v.1.15,2013-03-18 13:38:00,
2013-03-18 07:44:00,26.0,22.9,29.99,NE,46,3.0,5.0,88,0.00,,,0.00,0,Wunderground v.1.15,2013-03-18 13:44:00,
2013-03-18 07:49:00,26.0,22.9,29.99,ENE,71,2.0,6.0,88,0.00,,,0.00,0,Wunderground v.1.15,2013-03-18 13:49:00,
2013-03-18 07:54:00,26.0,22.9,30.00,East,92,1.0,5.0,88,0.00,,,0.00,0,Wunderground v.1.15,2013-03-18 13:54:00,
2013-03-18 08:00:00,26.0,22.9,30.00,ESE,109,0.0,5.0,88,0.00,,,0.00,0,Wunderground v.1.15,2013-03-18 14:00:00,
2013-03-18 08:06:00,26.0,22.9,30.00,SSW,200,1.0,5.0,88,0.00,,,0.00,0,Wunderground v.1.15,2013-03-18 14:06:00,
2013-03-18 08:12:00,26.0,22.7,30.00,West,279,2.0,5.0,87,0.00,,,0.00,7,Wunderground v.1.15,2013-03-18 14:12:00,
2013-03-18 08:18:00,26.0,22.7,30.01,WNW,284,1.0,5.0,87,0.00,,,0.00,9,Wunderground v.1.15,2013-03-18 14:18:00,
2013-03-18 08:24:00,26.0,22.7,30.00,WNW,286,1.0,5.0,87,0.00,,,0.00,14,Wunderground v.1.15,2013-03-18 14:24:00,
2013-03-18 08:30:00,25.9,22.6,30.00,North,5,2.0,2.0,87,0.00,,,0.00,16,Wunderground v.1.15,2013-03-18 14:30:00,
2013-03-18 08:36:00,26.0,22.4,30.00,ESE,117,4.0,8.0,86,0.00,,,0.00,19,Wunderground v.1.15,2013-03-18 14:36:00,
2013-03-18 08:42:00,26.1,22.5,30.01,WSW,241,2.0,5.0,86,0.00,,,0.00,19,Wunderground v.1.15,2013-03-18 14:42:00,
2013-03-18 08:47:00,26.2,22.6,30.01,NNE,18,2.0,5.0,86,0.00,,,0.00,21,Wunderground v.1.15,2013-03-18 14:47:00,
2013-03-18 08:53:00,26.2,22.6,30.01,ESE,121,4.0,8.0,86,0.00,,,0.00,25,Wunderground v.1.15,2013-03-18 14:53:00,
2013-03-18 08:58:00,26.3,22.4,30.01,ENE,74,4.0,8.0,85,0.00,,,0.00,28,Wunderground v.1.15,2013-03-18 14:58:00,
2013-03-18 09:04:00,26.4,22.5,30.01,NNE,28,2.0,5.0,85,0.00,,,0.00,33,Wunderground v.1.15,2013-03-18 15:04:00,
2013-03-18 09:10:00,26.7,22.8,30.01,SE,141,3.0,3.0,85,0.00,,,0.00,44,Wunderground v.1.15,2013-03-18 15:10:00,
2013-03-18 09:16:00,26.9,22.7,30.02,SSE,154,3.0,5.0,84,0.00,,,0.00,30,Wunderground v.1.15,2013-03-18 15:16:00,
2013-03-18 09:21:00,27.1,22.9,30.01,East,84,2.0,5.0,84,0.00,,,0.00,47,Wunderground v.1.15,2013-03-18 15:21:00,
2013-03-18 09:27:00,27.4,23.5,30.01,East,82,1.0,5.0,85,0.00,,,0.00,53,Wunderground v.1.15,2013-03-18 15:27:00,
2013-03-18 09:32:00,27.5,23.0,30.01,North,360,2.0,11.0,83,0.00,,,0.00,51,Wunderground v.1.15,2013-03-18 15:32:00,
2013-03-18 09:38:00,27.8,23.6,30.02,NNE,24,2.0,11.0,84,0.00,,,0.00,46,Wunderground v.1.15,2013-03-18 15:38:00,
2013-03-18 09:44:00,28.1,23.9,30.01,ESE,118,1.0,5.0,84,0.00,,,0.00,44,Wunderground v.1.15,2013-03-18 15:44:00,
2013-03-18 09:49:00,28.3,24.1,30.02,South,172,1.0,5.0,84,0.00,,,0.00,46,Wunderground v.1.15,2013-03-18 15:49:00,
2013-03-18 09:55:00,28.5,24.0,30.02,WSW,237,1.0,5.0,83,0.00,,,0.00,46,Wunderground v.1.15,2013-03-18 15:55:00,
2013-03-18 10:02:00,28.7,24.2,30.02,West,268,1.0,5.0,83,0.00,,,0.00,40,Wunderground v.1.15,2013-03-18 16:02:00,
2013-03-18 10:08:00,28.8,24.6,30.02,East,82,1.0,5.0,84,0.00,,,0.00,56,Wunderground v.1.15,2013-03-18 16:08:00,
2013-03-18 10:14:00,28.9,24.4,30.03,NE,45,1.0,5.0,83,0.00,,,0.00,39,Wunderground v.1.15,2013-03-18 16:14:00,
2013-03-18 10:20:00,29.0,24.5,30.02,East,90,1.0,1.0,83,0.00,,,0.00,49,Wunderground v.1.15,2013-03-18 16:20:00,
2013-03-18 10:25:00,29.0,23.9,30.02,ENE,60,3.0,8.0,81,0.00,,,0.00,53,Wunderground v.1.15,2013-03-18 16:25:00,
2013-03-18 10:32:00,29.2,23.5,30.03,NE,56,3.0,5.0,79,0.00,,,0.00,58,Wunderground v.1.15,2013-03-18 16:32:00,
2013-03-18 10:38:00,29.3,24.2,30.03,West,271,1.0,5.0,81,0.00,,,0.00,65,Wunderground v.1.15,2013-03-18 16:38:00,
2013-03-18 10:44:00,29.6,24.5,30.02,West,263,2.0,5.0,81,0.00,,,0.00,62,Wunderground v.1.15,2013-03-18 16:44:00,
2013-03-18 10:50:00,29.7,23.4,30.02,SW,223,3.0,3.0,77,0.00,,,0.00,53,Wunderground v.1.15,2013-03-18 16:50:00,
2013-03-18 10:55:00,29.7,23.7,30.03,ENE,59,2.0,5.0,78,0.00,,,0.00,47,Wunderground v.1.15,2013-03-18 16:55:00,
2013-03-18 11:02:00,29.6,23.3,30.03,NNW,333,2.0,6.0,77,0.00,,,0.00,44,Wunderground v.1.15,2013-03-18 17:02:00,
2013-03-18 11:07:00,29.3,23.9,30.03,WNW,292,4.0,7.0,80,0.00,,,0.00,42,Wunderground v.1.15,2013-03-18 17:07:00,
2013-03-18 11:13:00,29.2,24.1,30.03,WNW,299,3.0,5.0,81,0.00,,,0.00,46,Wunderground v.1.15,2013-03-18 17:13:00,
2013-03-18 11:19:00,29.0,24.2,30.03,West,273,2.0,5.0,82,0.00,,,0.00,46,Wunderground v.1.15,2013-03-18 17:19:00,
2013-03-18 11:25:00,29.0,24.2,30.03,WNW,299,1.0,5.0,82,0.00,,,0.00,46,Wunderground v.1.15,2013-03-18 17:25:00,
2013-03-18 11:31:00,28.9,24.4,30.03,WNW,287,2.0,5.0,83,0.00,,,0.00,51,Wunderground v.1.15,2013-03-18 17:31:00,
2013-03-18 11:37:00,28.9,24.7,30.03,ENE,72,2.0,5.0,84,0.00,,,0.00,54,Wunderground v.1.15,2013-03-18 17:37:00,
2013-03-18 11:43:00,28.9,25.0,30.03,ENE,72,1.0,5.0,85,0.00,,,0.00,49,Wunderground v.1.15,2013-03-18 17:43:00,
2013-03-18 11:49:00,28.7,24.8,30.03,East,82,1.0,5.0,85,0.00,,,0.00,53,Wunderground v.1.15,2013-03-18 17:49:00,
2013-03-18 11:54:00,28.8,24.9,30.03,East,82,1.0,5.0,85,0.00,,,0.00,54,Wunderground v.1.15,2013-03-18 17:54:00,
2013-03-18 12:00:00,29.0,25.3,30.03,East,82,0.0,5.0,86,0.00,,,0.00,65,Wunderground v.1.15,2013-03-18 18:00:00,
2013-03-18 12:05:00,29.1,25.4,30.02,ENE,78,1.0,5.0,86,0.00,,,0.00,58,Wunderground v.1.15,2013-03-18 18:05:00,
2013-03-18 12:12:00,29.5,25.8,30.02,ENE,78,1.0,5.0,86,0.00,,,0.00,70,Wunderground v.1.15,2013-03-18 18:12:00,
2013-03-18 12:18:00,29.8,25.8,30.02,ENE,78,0.0,5.0,85,0.00,,,0.00,76,Wunderground v.1.15,2013-03-18 18:18:00,
2013-03-18 12:24:00,30.2,25.9,30.02,South,171,2.0,5.0,84,0.00,,,0.00,65,Wunderground v.1.15,2013-03-18 18:24:00,
2013-03-18 12:30:00,30.5,26.2,30.02,SSE,149,1.0,5.0,84,0.00,,,0.00,65,Wunderground v.1.15,2013-03-18 18:30:00,
2013-03-18 12:35:00,30.6,26.3,30.02,SSE,149,0.0,5.0,84,0.00,,,0.00,54,Wunderground v.1.15,2013-03-18 18:35:00,
2013-03-18 12:41:00,30.7,26.4,30.02,NE,38,1.0,5.0,84,0.00,,,0.00,65,Wunderground v.1.15,2013-03-18 18:41:00,
2013-03-18 12:47:00,30.9,26.6,30.02,NW,311,1.0,5.0,84,0.00,,,0.00,79,Wunderground v.1.15,2013-03-18 18:47:00,
2013-03-18 12:52:00,31.0,26.7,30.01,NNW,348,1.0,5.0,84,0.00,,,0.00,67,Wunderground v.1.15,2013-03-18 18:52:00,
2013-03-18 12:58:00,31.2,26.3,30.02,WSW,244,1.0,5.0,82,0.00,,,0.00,67,Wunderground v.1.15,2013-03-18 18:58:00,
2013-03-18 13:03:00,31.4,26.5,30.02,WSW,244,1.0,5.0,82,0.00,,,0.00,62,Wunderground v.1.15,2013-03-18 19:03:00,
2013-03-18 13:09:00,31.6,26.7,30.01,East,84,1.0,5.0,82,0.00,,,0.00,69,Wunderground v.1.15,2013-03-18 19:09:00,
2013-03-18 13:14:00,31.6,26.7,30.02,East,84,1.0,5.0,82,0.00,,,0.00,67,Wunderground v.1.15,2013-03-18 19:14:00,
2013-03-18 13:20:00,32.0,27.4,30.01,East,85,0.0,5.0,83,0.00,,,0.00,70,Wunderground v.1.15,2013-03-18 19:20:00,
2013-03-18 13:25:00,32.1,27.5,30.01,NE,39,0.0,5.0,83,0.00,,,0.00,69,Wunderground v.1.15,2013-03-18 19:25:00,
2013-03-18 13:32:00,32.2,27.9,30.01,SE,128,1.0,5.0,84,0.00,,,0.00,72,Wunderground v.1.15,2013-03-18 19:32:00,
2013-03-18 13:37:00,32.0,28.0,30.01,East,96,1.0,5.0,85,0.00,,,0.00,56,Wunderground v.1.15,2013-03-18 19:37:00,
2013-03-18 13:43:00,32.0,27.4,30.01,ESE,122,1.0,5.0,83,0.00,,,0.00,70,Wunderground v.1.15,2013-03-18 19:43:00,
2013-03-18 13:48:00,32.0,27.1,30.01,SSE,167,1.0,5.0,82,0.00,,,0.00,90,Wunderground v.1.15,2013-03-18 19:48:00,
2013-03-18 13:54:00,32.4,27.8,30.01,West,260,1.0,5.0,83,0.00,,,0.00,86,Wunderground v.1.15,2013-03-18 19:54:00,
2013-03-18 14:00:00,32.6,27.7,30.01,West,273,1.0,5.0,82,0.00,,,0.00,77,Wunderground v.1.15,2013-03-18 20:00:00,
2013-03-18 14:05:00,32.5,27.6,30.01,NNW,336,1.0,5.0,82,0.00,,,0.00,83,Wunderground v.1.15,2013-03-18 20:05:00,
2013-03-18 14:11:00,32.7,27.5,30.01,North,5,1.0,5.0,81,0.00,,,0.01,86,Wunderground v.1.15,2013-03-18 20:11:00,
2013-03-18 14:17:00,32.6,27.7,30.01,West,273,2.0,6.0,82,0.00,,,0.01,74,Wunderground v.1.15,2013-03-18 20:17:00,
2013-03-18 14:22:00,32.6,27.4,30.00,West,273,1.0,5.0,81,0.00,,,0.01,84,Wunderground v.1.15,2013-03-18 20:22:00,
2013-03-18 14:28:00,32.8,27.9,30.00,NW,321,0.0,5.0,82,0.00,,,0.02,72,Wunderground v.1.15,2013-03-18 20:28:00,
2013-03-18 14:33:00,32.9,28.3,30.00,NNW,329,1.0,5.0,83,0.00,,,0.02,86,Wunderground v.1.15,2013-03-18 20:33:00,
2013-03-18 14:38:00,32.7,27.5,30.00,SSW,200,2.0,7.0,81,0.00,,,0.02,76,Wunderground v.1.15,2013-03-18 20:38:00,
2013-03-18 14:43:00,32.7,27.5,30.01,SSE,166,2.0,5.0,81,0.00,,,0.02,88,Wunderground v.1.15,2013-03-18 20:43:00,
2013-03-18 14:49:00,32.8,27.0,30.01,SE,132,1.0,5.0,79,0.00,,,0.03,74,Wunderground v.1.15,2013-03-18 20:49:00,
2013-03-18 14:54:00,32.6,26.5,30.00,North,9,2.0,6.0,78,0.00,,,0.03,77,Wunderground v.1.15,2013-03-18 20:54:00,
2013-03-18 15:00:00,32.5,25.8,30.00,SSE,161,3.0,3.0,76,0.00,,,0.03,74,Wunderground v.1.15,2013-03-18 21:00:00,
2013-03-18 15:07:00,32.3,26.8,30.00,NW,315,3.0,5.0,80,0.00,,,0.03,95,Wunderground v.1.15,2013-03-18 21:07:00,
2013-03-18 15:13:00,32.4,27.5,30.00,ESE,110,2.0,6.0,82,0.00,,,0.03,90,Wunderground v.1.15,2013-03-18 21:13:00,
2013-03-18 15:19:00,32.5,27.3,30.00,SSE,149,2.0,6.0,81,0.00,,,0.03,113,Wunderground v.1.15,2013-03-18 21:19:00,
2013-03-18 15:25:00,32.6,27.7,30.00,SSE,152,1.0,5.0,82,0.00,,,0.03,137,Wunderground v.1.15,2013-03-18 21:25:00,
2013-03-18 15:30:00,32.8,28.2,30.00,WSW,240,1.0,1.0,83,0.00,,,0.04,97,Wunderground v.1.15,2013-03-18 21:30:00,
2013-03-18 15:35:00,32.7,27.5,29.99,ESE,113,2.0,6.0,81,0.00,,,0.04,123,Wunderground v.1.15,2013-03-18 21:35:00,
2013-03-18 15:42:00,32.6,27.7,29.99,ENE,63,3.0,5.0,82,0.00,,,0.04,107,Wunderground v.1.15,2013-03-18 21:42:00,
2013-03-18 15:48:00,32.7,27.8,29.99,ENE,78,2.0,5.0,82,0.00,,,0.04,135,Wunderground v.1.15,2013-03-18 21:48:00,
2013-03-18 15:54:00,32.8,27.9,29.99,NE,44,2.0,5.0,82,0.00,,,0.05,118,Wunderground v.1.15,2013-03-18 21:54:00,
2013-03-18 16:00:00,32.8,27.6,29.99,ESE,111,2.0,2.0,81,0.00,,,0.05,121,Wunderground v.1.15,2013-03-18 22:00:00,
2013-03-18 16:05:00,32.7,27.5,29.99,East,80,3.0,5.0,81,0.00,,,0.05,135,Wunderground v.1.15,2013-03-18 22:05:00,
2013-03-18 16:12:00,32.9,28.0,29.99,NE,42,3.0,11.0,82,0.00,,,0.05,100,Wunderground v.1.15,2013-03-18 22:12:00,
2013-03-18 16:18:00,33.0,27.2,30.00,NE,42,1.0,11.0,79,0.00,,,0.06,144,Wunderground v.1.15,2013-03-18 22:18:00,
2013-03-18 16:23:00,33.0,27.2,29.99,SSE,154,1.0,6.0,79,0.00,,,0.06,179,Wunderground v.1.15,2013-03-18 22:23:00,
2013-03-18 16:29:00,33.3,27.8,29.99,WSW,244,2.0,6.0,80,0.00,,,0.06,179,Wunderground v.1.15,2013-03-18 22:29:00,
2013-03-18 16:34:00,33.5,28.3,29.99,NW,315,2.0,5.0,81,0.00,,,0.06,165,Wunderground v.1.15,2013-03-18 22:34:00,
2013-03-18 16:39:00,33.7,27.6,29.99,SSE,155,2.0,5.0,78,0.00,,,0.07,223,Wunderground v.1.15,2013-03-18 22:39:00,
2013-03-18 16:45:00,34.2,28.4,29.99,West,266,2.0,6.0,79,0.00,,,0.07,239,Wunderground v.1.15,2013-03-18 22:45:00,
2013-03-18 16:50:00,34.4,27.6,29.99,NW,311,3.0,6.0,76,0.00,,,0.07,165,Wunderground v.1.15,2013-03-18 22:50:00,
2013-03-18 16:55:00,34.4,27.3,30.00,West,268,4.0,8.0,75,0.00,,,0.07,165,Wunderground v.1.15,2013-03-18 22:55:00,
2013-03-18 17:01:00,34.4,28.2,29.99,WNW,289,4.0,9.0,78,0.00,,,0.07,139,Wunderground v.1.15,2013-03-18 23:01:00,
2013-03-18 17:07:00,34.4,27.9,29.99,NNW,343,4.0,9.0,77,0.00,,,0.08,151,Wunderground v.1.15,2013-03-18 23:07:00,
2013-03-18 17:12:00,34.4,27.0,29.99,West,270,4.0,5.0,74,0.00,,,0.08,352,Wunderground v.1.15,2013-03-18 23:12:00,
2013-03-18 17:18:00,34.8,27.4,30.00,NW,322,4.0,6.0,74,0.00,,,0.08,538,Wunderground v.1.15,2013-03-18 23:18:00,
2013-03-18 17:24:00,35.1,26.3,29.99,South,184,6.0,8.0,70,0.00,,,0.08,503,Wunderground v.1.15,2013-03-18 23:24:00,
2013-03-18 17:29:00,35.1,24.9,29.99,NNE,13,6.0,10.0,66,0.00,,,0.08,452,Wunderground v.1.15,2013-03-18 23:29:00,
2013-03-18 17:34:00,35.0,25.5,29.99,WSW,252,5.0,7.0,68,0.00,,,0.09,262,Wunderground v.1.15,2013-03-18 23:34:00,
2013-03-18 17:39:00,34.6,26.2,30.00,West,280,5.0,7.0,71,0.00,,,0.09,144,Wunderground v.1.15,2013-03-18 23:39:00,
2013-03-18 17:45:00,34.4,24.6,29.99,WSW,254,5.0,9.0,67,0.00,,,0.09,72,Wunderground v.1.15,2013-03-18 23:45:00,
2013-03-18 17:51:00,34.4,24.6,29.99,WSW,257,4.0,6.0,67,0.00,,,0.09,95,Wunderground v.1.15,2013-03-18 23:51:00,
2013-03-18 17:56:00,34.3,24.1,29.99,NNW,344,5.0,11.0,66,0.00,,,0.09,90,Wunderground v.1.15,2013-03-18 23:56:00,
2013-03-18 18:02:00,34.2,24.7,30.00,NNW,330,5.0,8.0,68,0.00,,,0.10,72,Wunderground v.1.15,2013-03-19 00:02:00,
2013-03-18 18:08:00,33.9,24.1,30.00,WNW,286,6.0,8.0,67,0.00,,,0.10,137,Wunderground v.1.15,2013-03-19 00:08:00,
2013-03-18 18:13:00,33.8,23.6,30.00,WNW,284,5.0,6.0,66,0.00,,,0.10,44,Wunderground v.1.15,2013-03-19 00:13:00,
2013-03-18 18:18:00,33.6,22.7,30.00,South,190,5.0,10.0,64,0.00,,,0.10,47,Wunderground v.1.15,2013-03-19 00:18:00,
2013-03-18 18:24:00,33.3,22.4,30.00,WSW,244,5.0,8.0,64,0.00,,,0.10,40,Wunderground v.1.15,2013-03-19 00:24:00,
2013-03-18 18:29:00,33.0,22.5,30.00,West,271,5.0,9.0,65,0.00,,,0.10,23,Wunderground v.1.15,2013-03-19 00:29:00,
2013-03-18 18:35:00,32.7,22.6,30.00,West,263,4.0,10.0,66,0.00,,,0.10,21,Wunderground v.1.15,2013-03-19 00:35:00,
2013-03-18 18:40:00,32.5,22.8,30.00,WNW,288,3.0,3.0,67,0.00,,,0.10,25,Wunderground v.1.15,2013-03-19 00:40:00,
2013-03-18 18:46:00,32.3,21.8,30.01,SE,145,5.0,7.0,65,0.00,,,0.10,39,Wunderground v.1.15,2013-03-19 00:46:00,
2013-03-18 18:52:00,32.2,22.1,30.01,West,275,4.0,5.0,66,0.00,,,0.10,40,Wunderground v.1.15,2013-03-19 00:52:00,
2013-03-18 18:58:00,32.1,21.3,30.01,West,265,3.0,5.0,64,0.00,,,0.10,28,Wunderground v.1.15,2013-03-19 00:58:00,
2013-03-18 19:04:00,32.0,21.9,30.01,West,268,2.0,8.0,66,0.00,,,0.10,23,Wunderground v.1.15,2013-03-19 01:04:00,
2013-03-18 19:09:00,31.8,21.7,30.01,SSW,198,3.0,8.0,66,0.00,,,0.10,21,Wunderground v.1.15,2013-03-19 01:09:00,
2013-03-18 19:14:00,31.7,20.9,30.01,WNW,291,4.0,7.0,64,0.00,,,0.10,18,Wunderground v.1.15,2013-03-19 01:14:00,
2013-03-18 19:20:00,31.5,21.1,30.02,West,275,3.0,3.0,65,0.00,,,0.10,14,Wunderground v.1.15,2013-03-19 01:20:00,
2013-03-18 19:25:00,31.4,21.7,30.02,West,281,3.0,6.0,67,0.00,,,0.10,11,Wunderground v.1.15,2013-03-19 01:25:00,
2013-03-18 19:31:00,31.3,21.6,30.03,NW,317,2.0,5.0,67,0.00,,,0.10,7,Wunderground v.1.15,2013-03-19 01:31:00,
2013-03-18 19:37:00,31.0,22.0,30.03,West,273,1.0,5.0,69,0.00,,,0.10,5,Wunderground v.1.15,2013-03-19 01:37:00,
2013-03-18 19:42:00,30.9,21.9,30.03,West,273,1.0,5.0,69,0.00,,,0.10,0,Wunderground v.1.15,2013-03-19 01:42:00,
2013-03-18 19:47:00,30.6,21.6,30.03,SSW,201,1.0,5.0,69,0.00,,,0.10,0,Wunderground v.1.15,2013-03-19 01:47:00,
2013-03-18 19:53:00,30.3,22.4,30.03,West,267,1.0,5.0,72,0.00,,,0.10,0,Wunderground v.1.15,2013-03-19 01:53:00,
2013-03-18 19:59:00,30.0,22.4,30.03,West,266,1.0,5.0,73,0.00,,,0.10,0,Wunderground v.1.15,2013-03-19 01:59:00,
2013-03-18 20:05:00,29.7,22.4,30.03,SSW,198,1.0,5.0,74,0.00,,,0.10,0,Wunderground v.1.15,2013-03-19 02:05:00,
2013-03-18 20:11:00,29.3,22.7,30.03,SSW,205,1.0,5.0,76,0.00,,,0.10,0,Wunderground v.1.15,2013-03-19 02:11:00,
2013-03-18 20:17:00,29.0,22.1,30.04,West,275,1.0,5.0,75,0.00,,,0.10,0,Wunderground v.1.15,2013-03-19 02:17:00,
2013-03-18 20:22:00,28.8,22.2,30.05,West,275,0.0,5.0,76,0.00,,,0.10,0,Wunderground v.1.15,2013-03-19 02:22:00,
2013-03-18 20:27:00,28.6,22.0,30.05,WSW,257,0.0,5.0,76,0.00,,,0.10,0,Wunderground v.1.15,2013-03-19 02:27:00,
2013-03-18 20:32:00,28.4,21.8,30.05,WSW,249,0.0,5.0,76,0.00,,,0.10,0,Wunderground v.1.15,2013-03-19 02:32:00,
2013-03-18 20:38:00,28.1,22.1,30.06,West,260,0.0,5.0,78,0.00,,,0.10,0,Wunderground v.1.15,2013-03-19 02:38:00,
2013-03-18 20:44:00,27.9,21.9,30.06,SW,221,1.0,5.0,78,0.00,,,0.10,0,Wunderground v.1.15,2013-03-19 02:44:00,
2013-03-18 20:49:00,27.8,21.8,30.06,WNW,288,1.0,5.0,78,0.00,,,0.10,0,Wunderground v.1.15,2013-03-19 02:49:00,
2013-03-18 20:54:00,27.6,21.9,30.06,West,263,1.0,5.0,79,0.00,,,0.10,0,Wunderground v.1.15,2013-03-19 02:54:00,
2013-03-18 21:00:00,27.5,22.1,30.07,West,263,0.0,5.0,80,0.00,,,0.10,0,Wunderground v.1.15,2013-03-19 03:00:00,
2013-03-18 21:05:00,27.3,21.6,30.07,West,269,1.0,5.0,79,0.00,,,0.10,0,Wunderground v.1.15,2013-03-19 03:05:00,
2013-03-18 21:11:00,27.1,21.7,30.07,SSW,203,1.0,5.0,80,0.00,,,0.10,0,Wunderground v.1.15,2013-03-19 03:11:00,
2013-03-18 21:16:00,27.1,21.7,30.07,West,272,1.0,5.0,80,0.00,,,0.10,0,Wunderground v.1.15,2013-03-19 03:16:00,
2013-03-18 21:22:00,27.1,21.7,30.07,SSW,192,1.0,5.0,80,0.00,,,0.10,0,Wunderground v.1.15,2013-03-19 03:22:00,
2013-03-18 21:27:00,27.1,21.7,30.07,SSW,209,1.0,5.0,80,0.00,,,0.10,0,Wunderground v.1.15,2013-03-19 03:27:00,
2013-03-18 21:33:00,27.2,21.8,30.08,South,184,1.0,5.0,80,0.00,,,0.10,0,Wunderground v.1.15,2013-03-19 03:33:00,
2013-03-18 21:38:00,27.3,21.9,30.08,West,280,1.0,5.0,80,0.00,,,0.10,0,Wunderground v.1.15,2013-03-19 03:38:00,
2013-03-18 21:43:00,27.4,22.3,30.08,West,280,0.0,5.0,81,0.00,,,0.10,0,Wunderground v.1.15,2013-03-19 03:43:00,
2013-03-18 21:48:00,27.4,22.3,30.09,WNW,288,0.0,5.0,81,0.00,,,0.10,0,Wunderground v.1.15,2013-03-19 03:48:00,
2013-03-18 21:53:00,27.4,22.0,30.09,WSW,242,1.0,5.0,80,0.00,,,0.10,0,Wunderground v.1.15,2013-03-19 03:53:00,
2013-03-18 21:58:00,27.6,21.9,30.09,West,263,1.0,5.0,79,0.00,,,0.10,0,Wunderground v.1.15,2013-03-19 03:58:00,
2013-03-18 22:01:00,27.8,22.1,30.09,SW,226,1.0,5.0,79,0.00,,,0.10,0,Wunderground v.1.15,2013-03-19 04:01:00,
2013-03-18 22:02:00,27.8,22.1,30.09,SW,226,1.0,5.0,79,0.00,,,0.10,0,Wunderground v.1.15,2013-03-19 04:02:00,
2013-03-18 22:05:00,27.9,22.2,30.09,SSW,193,1.0,5.0,79,0.00,,,0.10,0,Wunderground v.1.15,2013-03-19 04:05:00,
2013-03-18 22:08:00,27.9,22.2,30.10,WSW,255,1.0,5.0,79,0.00,,,0.10,0,Wunderground v.1.15,2013-03-19 04:08:00,
2013-03-18 22:13:00,28.1,22.1,30.10,WSW,246,1.0,5.0,78,0.00,,,0.10,0,Wunderground v.1.15,2013-03-19 04:13:00,
2013-03-18 22:18:00,28.3,22.0,30.10,South,188,1.0,6.0,77,0.00,,,0.10,0,Wunderground v.1.15,2013-03-19 04:18:00,
2013-03-18 22:24:00,28.8,21.9,30.10,SSW,194,3.0,7.0,75,0.00,,,0.10,0,Wunderground v.1.15,2013-03-19 04:24:00,
2013-03-18 22:29:00,29.2,21.9,30.10,WSW,256,3.0,7.0,74,0.00,,,0.10,0,Wunderground v.1.15,2013-03-19 04:29:00,
2013-03-18 22:34:00,29.5,22.2,30.10,WNW,301,5.0,6.0,74,0.00,,,0.10,0,Wunderground v.1.15,2013-03-19 04:34:00,
2013-03-18 22:40:00,29.6,22.3,30.10,WNW,286,4.0,5.0,74,0.00,,,0.10,0,Wunderground v.1.15,2013-03-19 04:40:00,
2013-03-18 22:46:00,29.6,22.6,30.11,WSW,252,3.0,8.0,75,0.00,,,0.10,0,Wunderground v.1.15,2013-03-19 04:46:00,
2013-03-18 22:52:00,29.5,22.6,30.11,NNW,348,3.0,5.0,75,0.00,,,0.10,0,Wunderground v.1.15,2013-03-19 04:52:00,
2013-03-18 22:58:00,29.5,22.9,30.10,SW,219,3.0,5.0,76,0.00,,,0.10,0,Wunderground v.1.15,2013-03-19 04:58:00,
2013-03-18 23:04:00,29.4,22.8,30.10,WSW,248,3.0,7.0,76,0.00,,,0.10,0,Wunderground v.1.15,2013-03-19 05:04:00,
2013-03-18 23:10:00,29.3,22.7,30.10,South,191,3.0,3.0,76,0.00,,,0.10,0,Wunderground v.1.15,2013-03-19 05:10:00,
2013-03-18 23:15:00,29.3,22.7,30.10,West,264,3.0,11.0,76,0.00,,,0.10,0,Wunderground v.1.15,2013-03-19 05:15:00,
2013-03-18 23:21:00,29.3,22.7,30.10,South,169,3.0,4.0,76,0.00,,,0.10,0,Wunderground v.1.15,2013-03-19 05:21:00,
2013-03-18 23:26:00,29.2,22.6,30.11,West,261,3.0,7.0,76,0.00,,,0.10,0,Wunderground v.1.15,2013-03-19 05:26:00,
2013-03-18 23:31:00,29.1,22.5,30.12,West,273,2.0,4.0,76,0.00,,,0.10,0,Wunderground v.1.15,2013-03-19 05:31:00,
2013-03-18 23:37:00,29.1,22.8,30.12,NW,312,3.0,12.0,77,0.00,,,0.10,0,Wunderground v.1.15,2013-03-19 05:37:00,
2013-03-18 23:43:00,29.0,22.7,30.13,West,278,3.0,8.0,77,0.00,,,0.10,0,Wunderground v.1.15,2013-03-19 05:43:00,
2013-03-18 23:49:00,28.8,22.5,30.13,West,259,3.0,8.0,77,0.00,,,0.10,0,Wunderground v.1.15,2013-03-19 05:49:00,
2013-03-18 23:55:00,28.7,22.7,30.14,West,265,3.0,7.0,78,0.00,,,0.10,0,Wunderground v.1.15,2013-03-19 05:55:00,